sensor_id;sensor_type;location;lat;lon;timestamp;P1;durP1;ratioP1;P2;durP2;ratioP2
21091;SDS011;10704;42.678;23.288;2024-02-26T00:01:41;23.60;;;13.43;;
21091;SDS011;10704;42.678;23.288;2024-02-26T00:07:38;22.05;;;11.88;;
21091;SDS011;10704;42.678;23.288;2024-02-26T00:10:04;22.38;;;12.13;;
21091;SDS011;10704;42.678;23.288;2024-02-26T00:12:31;21.80;;;12.30;;
21091;SDS011;10704;42.678;23.288;2024-02-26T00:14:56;22.55;;;12.43;;
21091;SDS011;10704;42.678;23.288;2024-02-26T00:17:23;22.40;;;12.60;;
21091;SDS011;10704;42.678;23.288;2024-02-26T00:19:49;27.40;;;13.45;;
21091;SDS011;10704;42.678;23.288;2024-02-26T00:22:15;29.33;;;13.18;;
21091;SDS011;10704;42.678;23.288;2024-02-26T00:28:29;25.88;;;13.00;;
21091;SDS011;10704;42.678;23.288;2024-02-26T00:30:55;25.38;;;12.82;;
21091;SDS011;10704;42.678;23.288;2024-02-26T00:33:21;22.55;;;13.15;;
21091;SDS011;10704;42.678;23.288;2024-02-26T00:39:55;27.45;;;13.60;;
21091;SDS011;10704;42.678;23.288;2024-02-26T00:42:21;24.52;;;14.48;;
21091;SDS011;10704;42.678;23.288;2024-02-26T00:44:47;29.40;;;14.80;;
21091;SDS011;10704;42.678;23.288;2024-02-26T00:47:13;28.02;;;13.63;;
21091;SDS011;10704;42.678;23.288;2024-02-26T00:49:39;22.83;;;13.73;;
21091;SDS011;10704;42.678;23.288;2024-02-26T00:52:05;29.45;;;16.73;;
21091;SDS011;10704;42.678;23.288;2024-02-26T00:54:31;26.70;;;15.35;;
21091;SDS011;10704;42.678;23.288;2024-02-26T00:56:57;24.60;;;14.63;;
21091;SDS011;10704;42.678;23.288;2024-02-26T00:59:22;24.05;;;14.15;;
21091;SDS011;10704;42.678;23.288;2024-02-26T01:01:48;26.80;;;13.85;;
21091;SDS011;10704;42.678;23.288;2024-02-26T01:04:14;20.95;;;12.98;;
21091;SDS011;10704;42.678;23.288;2024-02-26T01:06:40;23.50;;;14.52;;
21091;SDS011;10704;42.678;23.288;2024-02-26T01:09:06;25.20;;;14.05;;
21091;SDS011;10704;42.678;23.288;2024-02-26T01:11:33;21.88;;;13.60;;
21091;SDS011;10704;42.678;23.288;2024-02-26T01:13:59;23.13;;;12.85;;
21091;SDS011;10704;42.678;23.288;2024-02-26T01:16:25;24.98;;;12.82;;
21091;SDS011;10704;42.678;23.288;2024-02-26T01:18:53;22.27;;;12.63;;
21091;SDS011;10704;42.678;23.288;2024-02-26T01:21:19;20.25;;;11.60;;
21091;SDS011;10704;42.678;23.288;2024-02-26T01:31:20;19.23;;;11.50;;
21091;SDS011;10704;42.678;23.288;2024-02-26T01:33:46;24.45;;;13.18;;
21091;SDS011;10704;42.678;23.288;2024-02-26T01:36:12;22.83;;;12.63;;
21091;SDS011;10704;42.678;23.288;2024-02-26T01:38:37;22.67;;;12.48;;
21091;SDS011;10704;42.678;23.288;2024-02-26T01:41:03;21.67;;;12.63;;
21091;SDS011;10704;42.678;23.288;2024-02-26T01:43:29;22.95;;;12.43;;
21091;SDS011;10704;42.678;23.288;2024-02-26T01:45:55;21.30;;;13.25;;
21091;SDS011;10704;42.678;23.288;2024-02-26T01:48:41;27.38;;;12.90;;
21091;SDS011;10704;42.678;23.288;2024-02-26T01:51:07;28.92;;;12.77;;
21091;SDS011;10704;42.678;23.288;2024-02-26T01:53:35;27.13;;;13.65;;
21091;SDS011;10704;42.678;23.288;2024-02-26T01:56:01;31.05;;;14.88;;
21091;SDS011;10704;42.678;23.288;2024-02-26T01:58:28;26.05;;;13.85;;
21091;SDS011;10704;42.678;23.288;2024-02-26T02:00:55;33.05;;;15.85;;
21091;SDS011;10704;42.678;23.288;2024-02-26T02:03:22;30.95;;;15.52;;
21091;SDS011;10704;42.678;23.288;2024-02-26T02:05:48;28.58;;;17.05;;
21091;SDS011;10704;42.678;23.288;2024-02-26T02:08:15;26.83;;;14.93;;
21091;SDS011;10704;42.678;23.288;2024-02-26T02:10:41;29.38;;;16.70;;
21091;SDS011;10704;42.678;23.288;2024-02-26T02:13:08;24.92;;;14.43;;
21091;SDS011;10704;42.678;23.288;2024-02-26T02:15:34;28.20;;;14.65;;
21091;SDS011;10704;42.678;23.288;2024-02-26T02:18:00;24.42;;;13.50;;
21091;SDS011;10704;42.678;23.288;2024-02-26T02:20:31;25.95;;;14.32;;
21091;SDS011;10704;42.678;23.288;2024-02-26T02:23:01;24.92;;;15.23;;
21091;SDS011;10704;42.678;23.288;2024-02-26T02:25:27;25.95;;;14.45;;
21091;SDS011;10704;42.678;23.288;2024-02-26T02:27:53;27.13;;;15.07;;
21091;SDS011;10704;42.678;23.288;2024-02-26T02:30:21;24.40;;;13.98;;
21091;SDS011;10704;42.678;23.288;2024-02-26T02:32:49;28.60;;;14.57;;
21091;SDS011;10704;42.678;23.288;2024-02-26T02:35:15;24.55;;;15.32;;
21091;SDS011;10704;42.678;23.288;2024-02-26T02:37:41;27.83;;;15.90;;
21091;SDS011;10704;42.678;23.288;2024-02-26T02:44:00;30.75;;;16.77;;
21091;SDS011;10704;42.678;23.288;2024-02-26T02:46:26;30.15;;;16.40;;
21091;SDS011;10704;42.678;23.288;2024-02-26T02:48:52;33.03;;;17.02;;
21091;SDS011;10704;42.678;23.288;2024-02-26T02:51:18;29.13;;;16.60;;
21091;SDS011;10704;42.678;23.288;2024-02-26T03:04:08;32.85;;;17.13;;
21091;SDS011;10704;42.678;23.288;2024-02-26T03:06:34;26.17;;;15.15;;
21091;SDS011;10704;42.678;23.288;2024-02-26T03:15:35;29.83;;;16.38;;
21091;SDS011;10704;42.678;23.288;2024-02-26T03:18:01;29.45;;;16.10;;
21091;SDS011;10704;42.678;23.288;2024-02-26T03:20:27;28.73;;;15.98;;
21091;SDS011;10704;42.678;23.288;2024-02-26T03:22:52;33.40;;;17.33;;
21091;SDS011;10704;42.678;23.288;2024-02-26T03:25:18;25.83;;;16.15;;
21091;SDS011;10704;42.678;23.288;2024-02-26T03:27:44;31.42;;;16.65;;
21091;SDS011;10704;42.678;23.288;2024-02-26T03:30:10;26.50;;;15.90;;
21091;SDS011;10704;42.678;23.288;2024-02-26T03:32:36;30.48;;;16.90;;
21091;SDS011;10704;42.678;23.288;2024-02-26T03:35:02;26.90;;;17.35;;
21091;SDS011;10704;42.678;23.288;2024-02-26T03:37:28;35.53;;;18.83;;
21091;SDS011;10704;42.678;23.288;2024-02-26T03:39:55;31.58;;;17.48;;
21091;SDS011;10704;42.678;23.288;2024-02-26T03:48:56;28.27;;;16.90;;
21091;SDS011;10704;42.678;23.288;2024-02-26T03:51:22;33.30;;;17.45;;
21091;SDS011;10704;42.678;23.288;2024-02-26T03:53:48;34.78;;;18.83;;
21091;SDS011;10704;42.678;23.288;2024-02-26T03:56:14;30.52;;;17.77;;
21091;SDS011;10704;42.678;23.288;2024-02-26T03:58:39;30.33;;;18.42;;
21091;SDS011;10704;42.678;23.288;2024-02-26T04:07:43;34.22;;;19.23;;
21091;SDS011;10704;42.678;23.288;2024-02-26T04:10:10;31.38;;;18.90;;
21091;SDS011;10704;42.678;23.288;2024-02-26T04:12:39;30.52;;;18.05;;
21091;SDS011;10704;42.678;23.288;2024-02-26T04:15:10;35.72;;;19.80;;
21091;SDS011;10704;42.678;23.288;2024-02-26T04:17:36;34.83;;;19.48;;
21091;SDS011;10704;42.678;23.288;2024-02-26T04:20:03;36.20;;;19.92;;
21091;SDS011;10704;42.678;23.288;2024-02-26T04:22:30;34.80;;;20.50;;
21091;SDS011;10704;42.678;23.288;2024-02-26T04:24:57;38.20;;;20.60;;
21091;SDS011;10704;42.678;23.288;2024-02-26T04:27:23;32.90;;;19.35;;
21091;SDS011;10704;42.678;23.288;2024-02-26T04:29:49;39.70;;;20.58;;
21091;SDS011;10704;42.678;23.288;2024-02-26T04:36:02;34.35;;;20.33;;
21091;SDS011;10704;42.678;23.288;2024-02-26T04:38:28;38.80;;;20.58;;
21091;SDS011;10704;42.678;23.288;2024-02-26T04:40:54;30.60;;;19.40;;
21091;SDS011;10704;42.678;23.288;2024-02-26T04:43:20;33.22;;;19.35;;
21091;SDS011;10704;42.678;23.288;2024-02-26T04:45:46;33.42;;;18.98;;
21091;SDS011;10704;42.678;23.288;2024-02-26T04:48:12;32.33;;;18.85;;
21091;SDS011;10704;42.678;23.288;2024-02-26T04:50:38;36.75;;;19.75;;
21091;SDS011;10704;42.678;23.288;2024-02-26T04:53:04;34.22;;;20.25;;
21091;SDS011;10704;42.678;23.288;2024-02-26T04:55:30;36.53;;;20.55;;
21091;SDS011;10704;42.678;23.288;2024-02-26T04:57:55;36.88;;;20.70;;
21091;SDS011;10704;42.678;23.288;2024-02-26T05:04:09;38.72;;;21.73;;
21091;SDS011;10704;42.678;23.288;2024-02-26T05:10:23;39.45;;;21.65;;
21091;SDS011;10704;42.678;23.288;2024-02-26T05:12:49;39.78;;;22.35;;
21091;SDS011;10704;42.678;23.288;2024-02-26T05:19:02;40.28;;;23.92;;
21091;SDS011;10704;42.678;23.288;2024-02-26T05:21:45;44.70;;;25.17;;
21091;SDS011;10704;42.678;23.288;2024-02-26T05:24:14;42.53;;;25.33;;
21091;SDS011;10704;42.678;23.288;2024-02-26T05:26:42;43.10;;;26.52;;
21091;SDS011;10704;42.678;23.288;2024-02-26T05:29:09;50.08;;;28.77;;
21091;SDS011;10704;42.678;23.288;2024-02-26T05:31:35;49.40;;;30.60;;
21091;SDS011;10704;42.678;23.288;2024-02-26T05:34:01;50.15;;;30.40;;
21091;SDS011;10704;42.678;23.288;2024-02-26T05:40:14;54.63;;;29.27;;
21091;SDS011;10704;42.678;23.288;2024-02-26T05:42:40;52.83;;;29.58;;
21091;SDS011;10704;42.678;23.288;2024-02-26T05:54:45;51.88;;;29.80;;
21091;SDS011;10704;42.678;23.288;2024-02-26T05:57:11;55.22;;;27.95;;
21091;SDS011;10704;42.678;23.288;2024-02-26T05:59:37;46.63;;;27.15;;
21091;SDS011;10704;42.678;23.288;2024-02-26T06:02:03;47.10;;;27.10;;
21091;SDS011;10704;42.678;23.288;2024-02-26T06:04:29;42.05;;;26.60;;
21091;SDS011;10704;42.678;23.288;2024-02-26T06:06:55;48.28;;;28.50;;
21091;SDS011;10704;42.678;23.288;2024-02-26T06:09:22;57.58;;;28.58;;
21091;SDS011;10704;42.678;23.288;2024-02-26T06:11:48;53.60;;;28.02;;
21091;SDS011;10704;42.678;23.288;2024-02-26T06:14:14;55.83;;;35.45;;
21091;SDS011;10704;42.678;23.288;2024-02-26T06:16:43;53.30;;;31.85;;
21091;SDS011;10704;42.678;23.288;2024-02-26T06:19:09;50.90;;;29.00;;
21091;SDS011;10704;42.678;23.288;2024-02-26T06:21:36;45.50;;;27.23;;
21091;SDS011;10704;42.678;23.288;2024-02-26T06:24:02;44.78;;;25.77;;
21091;SDS011;10704;42.678;23.288;2024-02-26T06:26:28;41.60;;;25.25;;
21091;SDS011;10704;42.678;23.288;2024-02-26T06:28:54;49.13;;;27.60;;
21091;SDS011;10704;42.678;23.288;2024-02-26T06:31:24;50.50;;;26.52;;
21091;SDS011;10704;42.678;23.288;2024-02-26T06:33:53;41.35;;;25.40;;
21091;SDS011;10704;42.678;23.288;2024-02-26T06:36:19;48.88;;;26.90;;
21091;SDS011;10704;42.678;23.288;2024-02-26T06:38:45;42.85;;;25.75;;
21091;SDS011;10704;42.678;23.288;2024-02-26T06:41:12;45.20;;;26.30;;
21091;SDS011;10704;42.678;23.288;2024-02-26T06:43:38;38.35;;;24.52;;
21091;SDS011;10704;42.678;23.288;2024-02-26T06:46:05;42.72;;;25.98;;
21091;SDS011;10704;42.678;23.288;2024-02-26T06:48:31;46.47;;;25.67;;
21091;SDS011;10704;42.678;23.288;2024-02-26T06:50:57;40.50;;;24.13;;
21091;SDS011;10704;42.678;23.288;2024-02-26T06:53:23;43.60;;;23.83;;
21091;SDS011;10704;42.678;23.288;2024-02-26T06:55:49;36.90;;;21.25;;
21091;SDS011;10704;42.678;23.288;2024-02-26T06:58:15;36.53;;;22.52;;
21091;SDS011;10704;42.678;23.288;2024-02-26T07:00:41;33.60;;;20.42;;
21091;SDS011;10704;42.678;23.288;2024-02-26T07:03:07;36.67;;;19.48;;
21091;SDS011;10704;42.678;23.288;2024-02-26T07:05:33;32.05;;;18.27;;
21091;SDS011;10704;42.678;23.288;2024-02-26T07:07:59;29.15;;;17.80;;
21091;SDS011;10704;42.678;23.288;2024-02-26T07:10:25;26.48;;;16.10;;
21091;SDS011;10704;42.678;23.288;2024-02-26T07:12:51;25.23;;;14.27;;
21091;SDS011;10704;42.678;23.288;2024-02-26T07:15:17;24.50;;;13.68;;
21091;SDS011;10704;42.678;23.288;2024-02-26T07:17:43;23.80;;;13.35;;
21091;SDS011;10704;42.678;23.288;2024-02-26T07:20:12;21.15;;;13.32;;
21091;SDS011;10704;42.678;23.288;2024-02-26T07:22:39;27.85;;;15.23;;
21091;SDS011;10704;42.678;23.288;2024-02-26T07:25:07;23.48;;;14.45;;
21091;SDS011;10704;42.678;23.288;2024-02-26T07:27:34;28.67;;;13.73;;
21091;SDS011;10704;42.678;23.288;2024-02-26T07:30:00;24.90;;;13.30;;
21091;SDS011;10704;42.678;23.288;2024-02-26T07:32:26;24.95;;;13.52;;
21091;SDS011;10704;42.678;23.288;2024-02-26T07:34:52;24.08;;;13.18;;
21091;SDS011;10704;42.678;23.288;2024-02-26T07:37:17;29.02;;;14.55;;
21091;SDS011;10704;42.678;23.288;2024-02-26T07:39:43;26.73;;;13.80;;
21091;SDS011;10704;42.678;23.288;2024-02-26T07:42:09;24.98;;;15.10;;
21091;SDS011;10704;42.678;23.288;2024-02-26T07:44:36;27.40;;;14.50;;
21091;SDS011;10704;42.678;23.288;2024-02-26T07:47:02;27.88;;;15.98;;
21091;SDS011;10704;42.678;23.288;2024-02-26T07:49:28;25.98;;;14.60;;
21091;SDS011;10704;42.678;23.288;2024-02-26T07:51:54;25.92;;;14.45;;
21091;SDS011;10704;42.678;23.288;2024-02-26T07:54:23;26.85;;;15.32;;
21091;SDS011;10704;42.678;23.288;2024-02-26T07:56:49;28.70;;;16.52;;
21091;SDS011;10704;42.678;23.288;2024-02-26T07:59:15;39.60;;;22.52;;
21091;SDS011;10704;42.678;23.288;2024-02-26T08:01:40;45.38;;;23.60;;
21091;SDS011;10704;42.678;23.288;2024-02-26T08:04:07;40.38;;;23.15;;
21091;SDS011;10704;42.678;23.288;2024-02-26T08:06:32;42.70;;;24.02;;
21091;SDS011;10704;42.678;23.288;2024-02-26T08:08:58;46.25;;;24.75;;
21091;SDS011;10704;42.678;23.288;2024-02-26T08:11:24;44.55;;;27.48;;
21091;SDS011;10704;42.678;23.288;2024-02-26T08:13:50;47.72;;;28.55;;
21091;SDS011;10704;42.678;23.288;2024-02-26T08:16:16;48.85;;;28.10;;
21091;SDS011;10704;42.678;23.288;2024-02-26T08:18:42;51.63;;;29.45;;
21091;SDS011;10704;42.678;23.288;2024-02-26T08:21:08;46.13;;;28.85;;
21091;SDS011;10704;42.678;23.288;2024-02-26T08:23:34;47.10;;;28.95;;
21091;SDS011;10704;42.678;23.288;2024-02-26T08:26:00;50.65;;;28.88;;
21091;SDS011;10704;42.678;23.288;2024-02-26T08:28:26;47.40;;;28.13;;
21091;SDS011;10704;42.678;23.288;2024-02-26T08:30:51;44.75;;;27.63;;
21091;SDS011;10704;42.678;23.288;2024-02-26T08:33:17;51.42;;;27.20;;
21091;SDS011;10704;42.678;23.288;2024-02-26T08:35:43;47.50;;;26.35;;
21091;SDS011;10704;42.678;23.288;2024-02-26T08:38:09;45.40;;;26.63;;
21091;SDS011;10704;42.678;23.288;2024-02-26T08:40:35;44.47;;;26.02;;
21091;SDS011;10704;42.678;23.288;2024-02-26T08:43:02;48.97;;;26.98;;
21091;SDS011;10704;42.678;23.288;2024-02-26T08:45:28;46.22;;;27.92;;
21091;SDS011;10704;42.678;23.288;2024-02-26T08:47:54;48.95;;;26.13;;
21091;SDS011;10704;42.678;23.288;2024-02-26T08:50:20;44.83;;;26.27;;
21091;SDS011;10704;42.678;23.288;2024-02-26T08:52:46;43.97;;;27.45;;
21091;SDS011;10704;42.678;23.288;2024-02-26T08:55:16;46.10;;;26.42;;
21091;SDS011;10704;42.678;23.288;2024-02-26T09:01:30;44.88;;;25.27;;
21091;SDS011;10704;42.678;23.288;2024-02-26T09:03:57;44.53;;;25.73;;
21091;SDS011;10704;42.678;23.288;2024-02-26T09:06:24;36.10;;;24.10;;
21091;SDS011;10704;42.678;23.288;2024-02-26T09:08:50;49.47;;;27.58;;
21091;SDS011;10704;42.678;23.288;2024-02-26T09:15:03;43.80;;;22.77;;
21091;SDS011;10704;42.678;23.288;2024-02-26T09:17:30;43.05;;;21.25;;
21091;SDS011;10704;42.678;23.288;2024-02-26T09:19:55;40.65;;;22.75;;
21091;SDS011;10704;42.678;23.288;2024-02-26T09:22:21;47.22;;;25.92;;
21091;SDS011;10704;42.678;23.288;2024-02-26T09:24:48;47.70;;;29.17;;
21091;SDS011;10704;42.678;23.288;2024-02-26T09:27:15;32.78;;;18.27;;
21091;SDS011;10704;42.678;23.288;2024-02-26T09:29:41;21.55;;;13.65;;
21091;SDS011;10704;42.678;23.288;2024-02-26T09:32:07;27.55;;;15.52;;
21091;SDS011;10704;42.678;23.288;2024-02-26T09:34:33;13.02;;;7.53;;
21091;SDS011;10704;42.678;23.288;2024-02-26T09:36:59;15.95;;;7.18;;
21091;SDS011;10704;42.678;23.288;2024-02-26T09:39:26;13.95;;;6.53;;
21091;SDS011;10704;42.678;23.288;2024-02-26T09:41:53;14.43;;;7.47;;
21091;SDS011;10704;42.678;23.288;2024-02-26T09:44:19;15.02;;;7.38;;
21091;SDS011;10704;42.678;23.288;2024-02-26T09:46:47;10.35;;;6.38;;
21091;SDS011;10704;42.678;23.288;2024-02-26T09:49:15;10.63;;;6.43;;
21091;SDS011;10704;42.678;23.288;2024-02-26T09:51:42;11.05;;;5.60;;
21091;SDS011;10704;42.678;23.288;2024-02-26T09:54:11;12.43;;;5.32;;
21091;SDS011;10704;42.678;23.288;2024-02-26T09:56:39;9.85;;;5.15;;
21091;SDS011;10704;42.678;23.288;2024-02-26T09:59:10;9.63;;;4.90;;
21091;SDS011;10704;42.678;23.288;2024-02-26T10:01:39;10.10;;;6.07;;
21091;SDS011;10704;42.678;23.288;2024-02-26T10:04:08;12.07;;;5.18;;
21091;SDS011;10704;42.678;23.288;2024-02-26T10:06:36;16.95;;;5.25;;
21091;SDS011;10704;42.678;23.288;2024-02-26T10:09:03;9.73;;;5.88;;
21091;SDS011;10704;42.678;23.288;2024-02-26T10:11:32;10.45;;;5.75;;
21091;SDS011;10704;42.678;23.288;2024-02-26T10:13:58;10.50;;;5.22;;
21091;SDS011;10704;42.678;23.288;2024-02-26T10:16:25;8.27;;;5.28;;
21091;SDS011;10704;42.678;23.288;2024-02-26T10:18:52;10.38;;;5.38;;
21091;SDS011;10704;42.678;23.288;2024-02-26T10:21:21;8.70;;;5.03;;
21091;SDS011;10704;42.678;23.288;2024-02-26T10:23:48;9.10;;;5.10;;
21091;SDS011;10704;42.678;23.288;2024-02-26T10:26:15;11.07;;;5.07;;
21091;SDS011;10704;42.678;23.288;2024-02-26T10:28:42;9.77;;;5.38;;
21091;SDS011;10704;42.678;23.288;2024-02-26T10:31:09;10.73;;;5.25;;
21091;SDS011;10704;42.678;23.288;2024-02-26T10:33:55;10.73;;;5.30;;
21091;SDS011;10704;42.678;23.288;2024-02-26T10:36:22;9.98;;;5.40;;
21091;SDS011;10704;42.678;23.288;2024-02-26T10:38:47;9.02;;;5.70;;
21091;SDS011;10704;42.678;23.288;2024-02-26T10:41:13;11.48;;;6.28;;
21091;SDS011;10704;42.678;23.288;2024-02-26T10:43:41;9.82;;;5.55;;
21091;SDS011;10704;42.678;23.288;2024-02-26T10:49:55;9.77;;;4.75;;
21091;SDS011;10704;42.678;23.288;2024-02-26T10:52:21;8.10;;;4.45;;
21091;SDS011;10704;42.678;23.288;2024-02-26T10:54:50;8.98;;;4.80;;
21091;SDS011;10704;42.678;23.288;2024-02-26T10:57:23;8.88;;;4.78;;
21091;SDS011;10704;42.678;23.288;2024-02-26T10:59:50;10.45;;;4.75;;
21091;SDS011;10704;42.678;23.288;2024-02-26T11:02:17;9.95;;;5.05;;
21091;SDS011;10704;42.678;23.288;2024-02-26T11:04:43;14.07;;;4.85;;
21091;SDS011;10704;42.678;23.288;2024-02-26T11:07:10;9.52;;;5.70;;
21091;SDS011;10704;42.678;23.288;2024-02-26T11:09:37;9.15;;;5.07;;
21091;SDS011;10704;42.678;23.288;2024-02-26T11:12:09;7.00;;;4.60;;
21091;SDS011;10704;42.678;23.288;2024-02-26T11:14:38;13.50;;;5.15;;
21091;SDS011;10704;42.678;23.288;2024-02-26T11:17:09;9.23;;;5.68;;
21091;SDS011;10704;42.678;23.288;2024-02-26T11:19:37;10.63;;;5.38;;
21091;SDS011;10704;42.678;23.288;2024-02-26T11:22:03;8.60;;;4.78;;
21091;SDS011;10704;42.678;23.288;2024-02-26T11:24:29;12.93;;;5.32;;
21091;SDS011;10704;42.678;23.288;2024-02-26T11:26:58;10.23;;;4.80;;
21091;SDS011;10704;42.678;23.288;2024-02-26T11:29:29;11.15;;;4.65;;
21091;SDS011;10704;42.678;23.288;2024-02-26T11:32:00;6.85;;;4.30;;
21091;SDS011;10704;42.678;23.288;2024-02-26T11:34:27;9.88;;;4.68;;
21091;SDS011;10704;42.678;23.288;2024-02-26T11:36:53;8.80;;;4.93;;
21091;SDS011;10704;42.678;23.288;2024-02-26T11:39:21;7.18;;;4.90;;
21091;SDS011;10704;42.678;23.288;2024-02-26T11:41:48;9.60;;;4.93;;
21091;SDS011;10704;42.678;23.288;2024-02-26T11:44:15;11.25;;;5.15;;
21091;SDS011;10704;42.678;23.288;2024-02-26T11:46:54;10.35;;;5.72;;
21091;SDS011;10704;42.678;23.288;2024-02-26T11:51:55;8.45;;;5.78;;
21091;SDS011;10704;42.678;23.288;2024-02-26T11:54:38;10.52;;;5.65;;
21091;SDS011;10704;42.678;23.288;2024-02-26T11:57:30;9.15;;;4.72;;
21091;SDS011;10704;42.678;23.288;2024-02-26T12:07:54;9.57;;;4.20;;
21091;SDS011;10704;42.678;23.288;2024-02-26T12:10:30;8.88;;;4.85;;
21091;SDS011;10704;42.678;23.288;2024-02-26T12:13:07;9.55;;;4.78;;
21091;SDS011;10704;42.678;23.288;2024-02-26T12:15:38;8.60;;;4.30;;
21091;SDS011;10704;42.678;23.288;2024-02-26T12:18:06;11.18;;;4.50;;
21091;SDS011;10704;42.678;23.288;2024-02-26T12:20:33;7.40;;;3.90;;
21091;SDS011;10704;42.678;23.288;2024-02-26T12:23:00;7.45;;;4.30;;
21091;SDS011;10704;42.678;23.288;2024-02-26T12:25:28;6.88;;;4.15;;
21091;SDS011;10704;42.678;23.288;2024-02-26T12:27:56;6.80;;;3.60;;
21091;SDS011;10704;42.678;23.288;2024-02-26T12:30:22;9.48;;;3.88;;
21091;SDS011;10704;42.678;23.288;2024-02-26T12:32:51;8.15;;;4.20;;
21091;SDS011;10704;42.678;23.288;2024-02-26T12:35:22;7.22;;;4.20;;
21091;SDS011;10704;42.678;23.288;2024-02-26T12:37:49;7.53;;;3.67;;
21091;SDS011;10704;42.678;23.288;2024-02-26T12:40:17;6.85;;;4.28;;
21091;SDS011;10704;42.678;23.288;2024-02-26T12:42:43;10.20;;;3.90;;
21091;SDS011;10704;42.678;23.288;2024-02-26T12:45:10;8.18;;;3.80;;
21091;SDS011;10704;42.678;23.288;2024-02-26T12:47:55;7.53;;;3.60;;
21091;SDS011;10704;42.678;23.288;2024-02-26T12:50:22;9.85;;;4.40;;
21091;SDS011;10704;42.678;23.288;2024-02-26T12:52:48;8.45;;;4.35;;
21091;SDS011;10704;42.678;23.288;2024-02-26T12:55:17;7.60;;;4.43;;
21091;SDS011;10704;42.678;23.288;2024-02-26T12:57:44;7.40;;;3.85;;
21091;SDS011;10704;42.678;23.288;2024-02-26T13:00:18;6.05;;;3.47;;
21091;SDS011;10704;42.678;23.288;2024-02-26T13:02:49;8.43;;;3.67;;
21091;SDS011;10704;42.678;23.288;2024-02-26T13:05:15;13.32;;;6.03;;
21091;SDS011;10704;42.678;23.288;2024-02-26T13:07:43;7.80;;;4.10;;
21091;SDS011;10704;42.678;23.288;2024-02-26T13:10:11;8.05;;;3.90;;
21091;SDS011;10704;42.678;23.288;2024-02-26T13:12:42;14.77;;;4.40;;
21091;SDS011;10704;42.678;23.288;2024-02-26T13:15:09;9.75;;;3.58;;
21091;SDS011;10704;42.678;23.288;2024-02-26T13:17:41;6.57;;;3.72;;
21091;SDS011;10704;42.678;23.288;2024-02-26T13:20:08;7.43;;;4.07;;
21091;SDS011;10704;42.678;23.288;2024-02-26T13:22:35;6.57;;;3.40;;
21091;SDS011;10704;42.678;23.288;2024-02-26T13:25:01;6.32;;;3.53;;
21091;SDS011;10704;42.678;23.288;2024-02-26T13:27:28;7.88;;;4.53;;
21091;SDS011;10704;42.678;23.288;2024-02-26T13:32:34;8.38;;;3.55;;
21091;SDS011;10704;42.678;23.288;2024-02-26T13:35:05;8.43;;;4.32;;
21091;SDS011;10704;42.678;23.288;2024-02-26T13:37:35;13.85;;;4.28;;
21091;SDS011;10704;42.678;23.288;2024-02-26T13:40:20;7.60;;;3.88;;
21091;SDS011;10704;42.678;23.288;2024-02-26T13:42:46;8.88;;;3.85;;
21091;SDS011;10704;42.678;23.288;2024-02-26T13:45:13;9.32;;;3.92;;
21091;SDS011;10704;42.678;23.288;2024-02-26T13:47:39;7.38;;;3.38;;
21091;SDS011;10704;42.678;23.288;2024-02-26T13:50:06;9.00;;;3.95;;
21091;SDS011;10704;42.678;23.288;2024-02-26T13:52:32;8.25;;;3.70;;
21091;SDS011;10704;42.678;23.288;2024-02-26T13:54:59;9.40;;;4.65;;
21091;SDS011;10704;42.678;23.288;2024-02-26T13:57:25;12.32;;;4.32;;
21091;SDS011;10704;42.678;23.288;2024-02-26T13:59:51;6.60;;;3.30;;
21091;SDS011;10704;42.678;23.288;2024-02-26T14:02:17;7.35;;;4.22;;
21091;SDS011;10704;42.678;23.288;2024-02-26T14:04:43;7.22;;;3.70;;
21091;SDS011;10704;42.678;23.288;2024-02-26T14:07:11;8.02;;;3.85;;
21091;SDS011;10704;42.678;23.288;2024-02-26T14:09:39;8.07;;;3.53;;
21091;SDS011;10704;42.678;23.288;2024-02-26T14:12:05;8.82;;;4.43;;
21091;SDS011;10704;42.678;23.288;2024-02-26T14:14:31;6.18;;;3.40;;
21091;SDS011;10704;42.678;23.288;2024-02-26T14:17:00;8.52;;;4.20;;
21091;SDS011;10704;42.678;23.288;2024-02-26T14:19:28;7.75;;;3.28;;
21091;SDS011;10704;42.678;23.288;2024-02-26T14:21:54;10.77;;;3.63;;
21091;SDS011;10704;42.678;23.288;2024-02-26T14:24:20;7.95;;;3.97;;
21091;SDS011;10704;42.678;23.288;2024-02-26T14:26:46;8.52;;;3.88;;
21091;SDS011;10704;42.678;23.288;2024-02-26T14:29:12;8.25;;;4.43;;
21091;SDS011;10704;42.678;23.288;2024-02-26T14:31:39;8.07;;;3.50;;
21091;SDS011;10704;42.678;23.288;2024-02-26T14:34:05;6.38;;;3.08;;
21091;SDS011;10704;42.678;23.288;2024-02-26T14:36:32;8.43;;;3.25;;
21091;SDS011;10704;42.678;23.288;2024-02-26T14:38:58;7.80;;;3.88;;
21091;SDS011;10704;42.678;23.288;2024-02-26T14:41:24;6.68;;;3.15;;
21091;SDS011;10704;42.678;23.288;2024-02-26T14:43:50;8.20;;;3.55;;
21091;SDS011;10704;42.678;23.288;2024-02-26T14:46:16;7.15;;;2.97;;
21091;SDS011;10704;42.678;23.288;2024-02-26T14:48:42;7.20;;;3.40;;
21091;SDS011;10704;42.678;23.288;2024-02-26T14:51:08;10.25;;;3.97;;
21091;SDS011;10704;42.678;23.288;2024-02-26T14:53:34;6.43;;;3.55;;
21091;SDS011;10704;42.678;23.288;2024-02-26T14:56:00;9.48;;;3.83;;
21091;SDS011;10704;42.678;23.288;2024-02-26T14:58:26;7.28;;;3.63;;
21091;SDS011;10704;42.678;23.288;2024-02-26T15:00:52;9.40;;;4.32;;
21091;SDS011;10704;42.678;23.288;2024-02-26T15:03:18;12.18;;;4.82;;
21091;SDS011;10704;42.678;23.288;2024-02-26T15:05:44;9.98;;;3.33;;
21091;SDS011;10704;42.678;23.288;2024-02-26T15:08:09;8.00;;;3.30;;
21091;SDS011;10704;42.678;23.288;2024-02-26T15:10:40;8.65;;;4.10;;
21091;SDS011;10704;42.678;23.288;2024-02-26T15:13:12;9.48;;;3.13;;
21091;SDS011;10704;42.678;23.288;2024-02-26T15:15:38;7.93;;;3.88;;
21091;SDS011;10704;42.678;23.288;2024-02-26T15:18:06;8.50;;;3.97;;
21091;SDS011;10704;42.678;23.288;2024-02-26T15:20:33;8.48;;;3.88;;
21091;SDS011;10704;42.678;23.288;2024-02-26T15:22:59;7.57;;;3.45;;
21091;SDS011;10704;42.678;23.288;2024-02-26T15:25:25;7.35;;;3.35;;
21091;SDS011;10704;42.678;23.288;2024-02-26T15:27:51;7.18;;;3.28;;
21091;SDS011;10704;42.678;23.288;2024-02-26T15:30:17;13.15;;;3.90;;
21091;SDS011;10704;42.678;23.288;2024-02-26T15:32:43;12.68;;;3.20;;
21091;SDS011;10704;42.678;23.288;2024-02-26T15:35:09;7.38;;;4.00;;
21091;SDS011;10704;42.678;23.288;2024-02-26T15:37:35;8.88;;;3.92;;
21091;SDS011;10704;42.678;23.288;2024-02-26T15:40:01;9.68;;;3.80;;
21091;SDS011;10704;42.678;23.288;2024-02-26T15:42:28;9.35;;;4.20;;
21091;SDS011;10704;42.678;23.288;2024-02-26T15:44:54;8.00;;;3.60;;
21091;SDS011;10704;42.678;23.288;2024-02-26T15:47:20;9.80;;;3.72;;
21091;SDS011;10704;42.678;23.288;2024-02-26T15:49:46;8.85;;;4.07;;
21091;SDS011;10704;42.678;23.288;2024-02-26T15:52:12;10.60;;;5.32;;
21091;SDS011;10704;42.678;23.288;2024-02-26T15:54:41;7.78;;;3.80;;
21091;SDS011;10704;42.678;23.288;2024-02-26T15:57:07;8.38;;;4.22;;
21091;SDS011;10704;42.678;23.288;2024-02-26T15:59:35;7.28;;;4.10;;
21091;SDS011;10704;42.678;23.288;2024-02-26T16:02:01;12.25;;;4.10;;
21091;SDS011;10704;42.678;23.288;2024-02-26T16:04:27;5.63;;;3.38;;